Zografos, Greece
Current Conditions -  °F | °C
As of 5:20 PM on Thursday 29 Jan 2015 (Local Time) from LGTS Reporting Station
Broken Clouds Broken Clouds  
Wind Chill: 50°   Ceiling: 4000
Heat Index: 50°   Visibility: 6mi
Dew Point: 39°   Wind: 2mph
Humidity: 66%   Direction: NA
Pressure: 29.71"   Gusts: NA
Location:  40.28°N, 23.25°E
Report Text: LGTS 291420Z VRB02KT 9999 FEW020 BKN040 BKN070 10/04 Q1006 NOSIG
Loading
Personal Weather Stations






























Interactive Weather Map New forecast layout! Learn more

10-Day Weather Forecast

Advertisements
Track Severe Weather on mobile